createdAt,value
2022-08-17T00:02:26.412Z,21.16
2022-08-17T00:04:54.705Z,21.08
2022-08-17T00:07:21.758Z,21.00
2022-08-17T00:09:48.305Z,20.93
2022-08-17T00:12:40.696Z,20.88
2022-08-17T00:15:01.899Z,20.81
2022-08-17T00:17:28.431Z,20.79
2022-08-17T00:19:54.910Z,20.77
2022-08-17T00:22:35.052Z,20.74
2022-08-17T00:25:09.141Z,20.89
2022-08-17T00:27:36.829Z,20.85
2022-08-17T00:30:06.072Z,20.76
2022-08-17T00:33:16.081Z,20.69
2022-08-17T00:35:32.190Z,20.81
2022-08-17T00:37:58.630Z,20.81
2022-08-17T00:40:25.169Z,20.49
2022-08-17T00:42:53.246Z,20.43
2022-08-17T00:45:20.785Z,20.43
2022-08-17T00:47:47.971Z,20.36
2022-08-17T00:50:18.583Z,20.35
2022-08-17T00:52:54.064Z,20.23
2022-08-17T00:55:21.232Z,20.35
2022-08-17T00:57:55.237Z,20.34
2022-08-17T01:00:26.692Z,20.24
2022-08-17T01:03:02.005Z,20.02
2022-08-17T01:05:32.792Z,20.00
2022-08-17T01:08:02.406Z,19.93
2022-08-17T01:11:00.628Z,19.94
2022-08-17T01:13:24.497Z,20.04
2022-08-17T01:15:57.277Z,20.00
2022-08-17T01:18:25.421Z,20.00
2022-08-17T01:20:54.080Z,20.09
2022-08-17T01:23:23.412Z,20.18
2022-08-17T01:25:52.249Z,20.25
2022-08-17T01:28:53.030Z,20.39
2022-08-17T01:31:08.327Z,20.30
2022-08-17T01:33:34.920Z,20.32
2022-08-17T01:36:01.736Z,20.30
2022-08-17T01:38:31.683Z,20.24
2022-08-17T01:41:06.371Z,20.25
2022-08-17T01:43:39.873Z,20.41
2022-08-17T01:46:06.429Z,20.22
2022-08-17T01:48:34.781Z,20.06
2022-08-17T01:51:01.316Z,20.05
2022-08-17T01:53:33.524Z,20.02
2022-08-17T01:56:06.678Z,20.09
2022-08-17T01:58:34.752Z,20.08
2022-08-17T02:01:03.725Z,20.06
2022-08-17T02:03:30.428Z,20.05
2022-08-17T02:05:57.475Z,20.09
2022-08-17T02:08:38.749Z,20.08
2022-08-17T02:11:11.711Z,20.08
2022-08-17T02:13:38.985Z,20.11
2022-08-17T02:16:05.488Z,20.09
2022-08-17T02:18:31.946Z,20.09
2022-08-17T02:20:59.180Z,20.06
2022-08-17T02:23:30.137Z,20.07
2022-08-17T02:25:58.924Z,20.07
2022-08-17T02:28:28.348Z,20.09
2022-08-17T02:31:01.518Z,20.09
2022-08-17T02:33:41.803Z,20.11
2022-08-17T02:36:11.512Z,20.10
2022-08-17T02:38:39.690Z,20.10
2022-08-17T02:41:06.782Z,20.16
2022-08-17T02:43:33.242Z,20.13
2022-08-17T02:45:59.859Z,20.11
2022-08-17T02:48:30.391Z,20.08
2022-08-17T02:50:59.449Z,20.14
2022-08-17T02:53:26.244Z,20.15
2022-08-17T02:55:53.090Z,20.25
2022-08-17T02:58:34.532Z,20.27
2022-08-17T03:01:06.873Z,20.31
2022-08-17T03:03:34.692Z,20.26
2022-08-17T03:06:01.513Z,20.16
2022-08-17T03:08:28.227Z,20.15
2022-08-17T03:10:55.027Z,20.24
2022-08-17T03:13:22.149Z,20.26
2022-08-17T03:15:49.258Z,20.26
2022-08-17T03:18:24.308Z,20.24
2022-08-17T03:20:59.313Z,20.24
2022-08-17T03:23:27.435Z,20.22
2022-08-17T03:25:55.566Z,20.29
2022-08-17T03:28:23.361Z,20.33
2022-08-17T03:30:51.091Z,20.27
2022-08-17T03:33:18.060Z,20.25
2022-08-17T03:35:44.652Z,20.22
2022-08-17T03:38:12.717Z,20.23
2022-08-17T03:40:57.101Z,20.21
2022-08-17T03:43:28.374Z,20.21
2022-08-17T03:46:27.363Z,20.17
2022-08-17T03:49:17.720Z,20.17
2022-08-17T03:52:02.472Z,20.09
2022-08-17T03:54:47.268Z,20.00
2022-08-17T03:57:13.847Z,19.91
2022-08-17T03:59:41.551Z,19.58
2022-08-17T04:02:11.428Z,19.67
2022-08-17T04:04:38.871Z,19.52
2022-08-17T04:07:06.171Z,19.36
2022-08-17T04:09:32.985Z,19.28
2022-08-17T04:12:02.339Z,19.30
2022-08-17T04:14:36.062Z,19.27
2022-08-17T04:17:12.472Z,19.21
2022-08-17T04:19:38.903Z,19.14
2022-08-17T04:22:05.666Z,19.36
2022-08-17T04:24:33.492Z,19.18
2022-08-17T04:27:01.568Z,19.22
2022-08-17T04:29:28.021Z,19.22
2022-08-17T04:32:14.619Z,19.04
2022-08-17T04:34:41.091Z,19.05
2022-08-17T04:37:08.609Z,18.72
2022-08-17T04:39:35.102Z,18.32
2022-08-17T04:42:07.381Z,18.24
2022-08-17T04:44:37.795Z,18.07
2022-08-17T04:47:05.012Z,18.16
2022-08-17T04:49:32.486Z,18.33
2022-08-17T04:52:04.124Z,17.99
2022-08-17T04:54:31.457Z,18.30
2022-08-17T04:56:57.896Z,18.34
2022-08-17T04:59:24.261Z,18.33
2022-08-17T05:01:52.120Z,18.35
2022-08-17T05:04:34.105Z,17.75
2022-08-17T05:07:02.106Z,17.88
2022-08-17T05:09:28.968Z,17.92
2022-08-17T05:11:55.449Z,18.06
2022-08-17T05:14:33.018Z,18.02
2022-08-17T05:17:00.485Z,17.93
2022-08-17T05:19:27.691Z,17.98
2022-08-17T05:21:54.121Z,18.10
2022-08-17T05:24:42.777Z,18.13
2022-08-17T05:27:07.404Z,18.18
2022-08-17T05:29:35.479Z,17.97
2022-08-17T05:32:39.220Z,17.94
2022-08-17T05:35:00.367Z,17.98
2022-08-17T05:37:27.136Z,18.12
2022-08-17T05:39:53.915Z,18.13
2022-08-17T05:42:21.015Z,18.16
2022-08-17T05:44:47.506Z,18.28
2022-08-17T05:47:13.884Z,18.24
2022-08-17T05:49:40.429Z,17.96
2022-08-17T05:52:33.313Z,18.19
2022-08-17T05:55:33.156Z,18.40
2022-08-17T05:58:14.900Z,18.50
2022-08-17T06:01:17.806Z,18.67
2022-08-17T06:04:28.619Z,18.74
2022-08-17T06:07:00.956Z,18.89
2022-08-17T06:09:38.269Z,19.09
2022-08-17T06:12:32.110Z,19.19
2022-08-17T06:15:26.175Z,19.23
2022-08-17T06:17:57.440Z,19.10
2022-08-17T06:20:27.693Z,19.17
2022-08-17T06:23:02.580Z,19.09
2022-08-17T06:25:34.771Z,19.07
2022-08-17T06:28:14.581Z,19.09
2022-08-17T06:31:00.862Z,19.12
2022-08-17T06:33:35.564Z,19.20
2022-08-17T06:36:36.828Z,19.34
2022-08-17T06:39:19.850Z,19.37
2022-08-17T06:41:58.376Z,19.49
2022-08-17T06:44:47.609Z,19.43
2022-08-17T06:47:28.949Z,19.53
2022-08-17T06:50:24.660Z,19.47
2022-08-17T06:53:02.780Z,19.47
2022-08-17T06:55:44.027Z,19.42
2022-08-17T06:58:16.200Z,19.40
2022-08-17T07:00:45.995Z,19.41
2022-08-17T07:03:23.832Z,19.20
2022-08-17T07:06:32.667Z,19.07
2022-08-17T07:09:14.613Z,19.09
2022-08-17T07:11:49.197Z,19.03
2022-08-17T07:14:27.715Z,19.06
2022-08-17T07:16:56.523Z,18.94
2022-08-17T07:19:26.886Z,19.12
2022-08-17T07:22:07.717Z,19.13
2022-08-17T07:24:47.299Z,19.07
2022-08-17T07:27:37.219Z,19.08
2022-08-17T07:30:16.336Z,19.30
2022-08-17T07:32:47.619Z,19.51
2022-08-17T07:35:31.116Z,19.61
2022-08-17T07:38:25.967Z,19.80
2022-08-17T07:41:05.852Z,19.84
2022-08-17T07:43:39.355Z,20.14
2022-08-17T07:46:30.400Z,20.07
2022-08-17T07:49:08.736Z,20.12
2022-08-17T07:51:44.292Z,20.04
2022-08-17T07:54:22.299Z,20.05
2022-08-17T07:56:54.907Z,20.08
2022-08-17T07:59:25.631Z,20.26
2022-08-17T08:01:58.336Z,20.47
2022-08-17T08:04:59.313Z,20.55
2022-08-17T08:07:31.899Z,20.76
2022-08-17T08:10:29.399Z,20.78
2022-08-17T08:13:14.281Z,20.75
2022-08-17T08:15:54.342Z,20.69
2022-08-17T08:18:54.473Z,20.76
2022-08-17T08:21:21.926Z,20.78
2022-08-17T08:24:14.832Z,20.96
2022-08-17T08:27:17.217Z,21.07
2022-08-17T08:29:55.512Z,21.07
2022-08-17T08:32:36.849Z,22.13
2022-08-17T08:35:13.748Z,23.35
2022-08-17T08:37:52.389Z,23.90
2022-08-17T08:40:43.960Z,23.51
2022-08-17T08:43:30.943Z,23.24
2022-08-17T08:46:24.306Z,22.39
2022-08-17T08:49:06.490Z,22.86
2022-08-17T08:51:47.016Z,23.08
2022-08-17T08:54:37.364Z,22.56
2022-08-17T08:57:27.805Z,22.29
2022-08-17T09:00:04.885Z,22.18
2022-08-17T09:03:02.545Z,21.82
2022-08-17T09:05:31.751Z,21.63
2022-08-17T09:08:21.922Z,21.32
2022-08-17T09:11:04.915Z,21.20
2022-08-17T09:13:40.250Z,21.02
2022-08-17T09:16:16.530Z,20.93
2022-08-17T09:19:01.563Z,21.18
2022-08-17T09:21:48.652Z,21.12
2022-08-17T09:24:43.513Z,20.79
2022-08-17T09:27:21.637Z,20.71
2022-08-17T09:29:53.958Z,20.61
2022-08-17T09:32:41.078Z,20.41
2022-08-17T09:35:24.991Z,20.24
2022-08-17T09:38:13.251Z,20.34
2022-08-17T09:41:05.163Z,20.45
2022-08-17T09:43:41.296Z,20.46
2022-08-17T09:46:18.172Z,20.37
2022-08-17T09:48:50.269Z,20.41
2022-08-17T09:51:34.923Z,20.41
2022-08-17T09:54:21.390Z,20.41
2022-08-17T09:57:27.955Z,20.54
2022-08-17T10:00:10.264Z,20.43
2022-08-17T10:03:19.728Z,20.43
2022-08-17T10:05:58.700Z,20.45
2022-08-17T10:08:52.963Z,20.54
2022-08-17T10:11:45.590Z,20.58
2022-08-17T10:14:37.252Z,20.67
2022-08-17T10:17:22.699Z,20.94
2022-08-17T10:19:59.190Z,21.22
2022-08-17T10:23:05.876Z,21.38
2022-08-17T10:25:55.931Z,21.56
2022-08-17T10:28:30.459Z,21.45
2022-08-17T10:31:30.807Z,21.49
2022-08-17T10:34:27.801Z,21.68
2022-08-17T10:36:57.389Z,21.63
2022-08-17T10:39:52.884Z,21.71
2022-08-17T10:42:36.543Z,21.65
2022-08-17T10:45:06.389Z,21.70
2022-08-17T10:48:06.837Z,21.69
2022-08-17T10:51:05.979Z,21.89
2022-08-17T10:53:32.426Z,21.98
2022-08-17T10:56:14.032Z,22.06
2022-08-17T10:59:00.429Z,21.98
2022-08-17T11:01:58.244Z,22.09
2022-08-17T11:04:40.851Z,22.25
2022-08-17T11:07:25.739Z,22.36
2022-08-17T11:10:15.940Z,22.57
2022-08-17T11:13:09.003Z,23.27
2022-08-17T11:15:48.368Z,23.46
2022-08-17T11:18:38.491Z,23.56
2022-08-17T11:21:39.082Z,23.78
2022-08-17T11:24:36.004Z,23.96
2022-08-17T11:27:22.391Z,24.06
2022-08-17T11:30:06.343Z,24.31
2022-08-17T11:32:52.012Z,24.27
2022-08-17T11:35:21.297Z,24.35
2022-08-17T11:38:18.337Z,24.39
2022-08-17T11:41:03.312Z,24.37
2022-08-17T11:44:02.073Z,24.33
2022-08-17T11:46:57.206Z,24.54
2022-08-17T11:49:58.052Z,24.65
2022-08-17T11:52:39.563Z,24.78
2022-08-17T11:55:34.028Z,24.64
2022-08-17T11:58:03.411Z,24.84
2022-08-17T12:00:44.794Z,25.75
2022-08-17T12:03:33.271Z,26.37
2022-08-17T12:06:07.245Z,26.75
2022-08-17T12:08:41.675Z,27.17
2022-08-17T12:11:57.796Z,27.02
2022-08-17T12:14:06.886Z,27.39
2022-08-17T12:16:33.494Z,27.97
2022-08-17T12:19:02.673Z,28.27
2022-08-17T12:21:44.982Z,28.38
2022-08-17T12:24:19.440Z,28.87
2022-08-17T12:26:52.926Z,29.09
2022-08-17T12:29:38.358Z,29.44
2022-08-17T12:32:07.004Z,29.72
2022-08-17T12:34:40.636Z,29.73
2022-08-17T12:37:16.608Z,29.23
2022-08-17T12:40:20.918Z,29.07
2022-08-17T12:42:55.448Z,29.64
2022-08-17T12:45:31.432Z,29.51
2022-08-17T12:48:07.623Z,29.66
2022-08-17T12:50:38.446Z,29.63
2022-08-17T12:53:16.759Z,29.91
2022-08-17T12:55:44.334Z,29.78
2022-08-17T12:58:15.302Z,29.94
2022-08-17T13:00:49.665Z,29.80
2022-08-17T13:03:20.117Z,29.32
2022-08-17T13:05:52.787Z,29.29
2022-08-17T13:08:24.416Z,29.32
2022-08-17T13:11:22.430Z,28.96
2022-08-17T13:13:51.809Z,28.71
2022-08-17T13:16:22.129Z,28.56
2022-08-17T13:19:08.857Z,28.58
2022-08-17T13:21:37.841Z,27.99
2022-08-17T13:24:19.189Z,27.73
2022-08-17T13:26:54.350Z,27.48
2022-08-17T13:29:26.147Z,27.66
2022-08-17T13:31:58.905Z,27.82
2022-08-17T13:34:41.141Z,28.07
2022-08-17T13:37:34.848Z,27.91
2022-08-17T13:40:21.236Z,27.85
2022-08-17T13:42:55.601Z,27.69
2022-08-17T13:45:36.483Z,27.67
2022-08-17T13:48:11.128Z,27.63
2022-08-17T13:51:05.585Z,27.70
2022-08-17T13:53:50.796Z,27.82
2022-08-17T13:56:45.113Z,27.71
2022-08-17T13:59:17.048Z,27.65
2022-08-17T14:02:04.748Z,27.54
2022-08-17T14:04:32.684Z,27.43
2022-08-17T14:07:25.750Z,27.28
2022-08-17T14:09:57.954Z,27.15
2022-08-17T14:12:27.197Z,26.93
2022-08-17T14:14:56.326Z,26.94
2022-08-17T14:17:24.590Z,26.68
2022-08-17T14:19:51.496Z,26.59
2022-08-17T14:22:23.632Z,26.60
2022-08-17T14:24:51.289Z,26.54
2022-08-17T14:27:18.579Z,26.18
2022-08-17T14:29:45.115Z,26.05
2022-08-17T14:32:19.099Z,25.97
2022-08-17T14:34:46.116Z,25.83
2022-08-17T14:37:12.954Z,25.73
2022-08-17T14:39:39.740Z,25.61
2022-08-17T14:42:06.487Z,25.50
2022-08-17T14:44:33.032Z,25.30
2022-08-17T14:46:59.579Z,25.36
2022-08-17T14:49:26.054Z,25.36
2022-08-17T14:51:52.797Z,25.32
2022-08-17T14:54:33.013Z,25.02
2022-08-17T14:57:23.064Z,24.92
2022-08-17T14:59:48.843Z,24.94
2022-08-17T15:02:19.484Z,24.84
2022-08-17T15:04:47.636Z,24.92
2022-08-17T15:07:14.976Z,24.70
2022-08-17T15:09:41.508Z,24.67
2022-08-17T15:12:08.623Z,24.64
2022-08-17T15:14:36.237Z,24.77
2022-08-17T15:17:03.705Z,24.65
2022-08-17T15:19:30.132Z,24.45
2022-08-17T15:21:56.663Z,24.36
2022-08-17T15:24:23.115Z,24.19
2022-08-17T15:26:49.838Z,24.09
2022-08-17T15:29:16.285Z,24.13
2022-08-17T15:31:43.352Z,24.03
2022-08-17T15:34:09.858Z,24.00
2022-08-17T15:36:36.988Z,23.91
2022-08-17T15:39:05.288Z,23.81
2022-08-17T15:41:32.395Z,23.59
2022-08-17T15:43:58.873Z,23.44
2022-08-17T15:46:26.733Z,23.50
2022-08-17T15:48:58.181Z,23.64
2022-08-17T15:51:30.224Z,23.67
2022-08-17T15:54:04.462Z,23.36
2022-08-17T15:56:46.041Z,23.05
2022-08-17T15:59:12.628Z,22.76
2022-08-17T16:02:27.742Z,22.68
2022-08-17T16:04:29.920Z,22.78
2022-08-17T16:06:58.009Z,22.68
2022-08-17T16:09:24.463Z,22.51
2022-08-17T16:11:52.798Z,22.13
2022-08-17T16:14:22.313Z,22.17
2022-08-17T16:16:50.555Z,22.22
2022-08-17T16:19:17.058Z,22.25
2022-08-17T16:21:43.534Z,22.36
2022-08-17T16:24:13.717Z,22.42
2022-08-17T16:26:42.587Z,22.15
2022-08-17T16:29:09.138Z,21.84
2022-08-17T16:31:37.493Z,22.37
2022-08-17T16:34:17.527Z,22.64
2022-08-17T16:36:53.667Z,22.64
2022-08-17T16:39:22.965Z,22.60
2022-08-17T16:41:50.208Z,22.52
2022-08-17T16:44:19.163Z,22.34
2022-08-17T16:46:46.984Z,22.36
2022-08-17T16:49:36.103Z,22.07
2022-08-17T16:52:01.632Z,21.91
2022-08-17T16:54:28.094Z,21.66
2022-08-17T16:56:55.578Z,21.44
2022-08-17T16:59:31.146Z,21.38
2022-08-17T17:02:04.644Z,20.90
2022-08-17T17:04:35.042Z,20.78
2022-08-17T17:07:33.782Z,20.52
2022-08-17T17:10:08.106Z,20.26
2022-08-17T17:13:01.395Z,20.22
2022-08-17T17:15:27.940Z,20.33
2022-08-17T17:18:06.058Z,20.43
2022-08-17T17:20:45.675Z,20.10
2022-08-17T17:23:35.718Z,19.80
2022-08-17T17:26:11.300Z,19.56
2022-08-17T17:28:50.045Z,19.62
2022-08-17T17:31:19.614Z,19.34
2022-08-17T17:33:52.370Z,19.31
2022-08-17T17:36:31.080Z,19.24
2022-08-17T17:39:03.807Z,19.20
2022-08-17T17:41:36.780Z,19.34
2022-08-17T17:44:11.973Z,19.14
2022-08-17T17:46:43.207Z,19.35
2022-08-17T17:49:14.192Z,19.28
2022-08-17T17:52:06.315Z,19.16
2022-08-17T17:55:05.933Z,18.90
2022-08-17T17:57:44.729Z,18.98
2022-08-17T18:00:21.694Z,19.04
2022-08-17T18:02:57.805Z,19.03
2022-08-17T18:05:34.468Z,18.96
2022-08-17T18:08:20.903Z,18.92
2022-08-17T18:11:06.157Z,18.88
2022-08-17T18:14:26.898Z,18.99
2022-08-17T18:16:57.389Z,19.02
2022-08-17T18:19:26.281Z,18.81
2022-08-17T18:22:00.627Z,18.84
2022-08-17T18:24:35.940Z,18.77
2022-08-17T18:27:19.007Z,18.77
2022-08-17T18:29:47.595Z,18.84
2022-08-17T18:32:19.406Z,18.81
2022-08-17T18:34:49.153Z,18.69
2022-08-17T18:37:31.736Z,18.83
2022-08-17T18:39:58.544Z,18.82
2022-08-17T18:42:28.856Z,18.75
2022-08-17T18:44:55.956Z,18.61
2022-08-17T18:47:28.773Z,18.59
2022-08-17T18:49:58.846Z,18.62
2022-08-17T18:52:31.520Z,18.67
2022-08-17T18:55:08.743Z,18.60
2022-08-17T18:57:39.489Z,18.63
2022-08-17T19:00:32.785Z,18.71
2022-08-17T19:03:18.640Z,18.35
2022-08-17T19:05:54.301Z,18.31
2022-08-17T19:08:34.958Z,18.14
2022-08-17T19:11:06.112Z,18.27
2022-08-17T19:14:05.592Z,18.29
2022-08-17T19:16:41.293Z,18.23
2022-08-17T19:19:19.551Z,18.30
2022-08-17T19:21:58.940Z,18.31
2022-08-17T19:24:29.889Z,18.33
2022-08-17T19:27:23.535Z,18.34
2022-08-17T19:30:11.701Z,18.36
2022-08-17T19:32:38.590Z,18.33
2022-08-17T19:35:11.424Z,18.39
2022-08-17T19:38:13.282Z,18.40
2022-08-17T19:41:01.064Z,18.37
2022-08-17T19:43:51.193Z,18.34
2022-08-17T19:46:48.789Z,18.08
2022-08-17T19:49:40.950Z,17.93
2022-08-17T19:52:42.747Z,17.83
2022-08-17T19:55:36.064Z,17.75
2022-08-17T19:58:18.420Z,17.90
2022-08-17T20:00:51.091Z,17.91
2022-08-17T20:03:21.999Z,17.99
2022-08-17T20:06:11.882Z,18.02
2022-08-17T20:08:56.685Z,18.04
2022-08-17T20:11:45.280Z,18.04
2022-08-17T20:14:15.871Z,17.98
2022-08-17T20:16:42.668Z,18.01
2022-08-17T20:19:41.467Z,18.00
2022-08-17T20:22:18.501Z,18.03
2022-08-17T20:24:51.083Z,18.12
2022-08-17T20:27:31.308Z,18.07
2022-08-17T20:30:00.897Z,18.04
2022-08-17T20:32:35.351Z,17.94
2022-08-17T20:35:18.004Z,17.74
2022-08-17T20:38:02.117Z,17.67
2022-08-17T20:40:32.368Z,17.76
2022-08-17T20:42:59.554Z,17.63
2022-08-17T20:45:26.261Z,17.63
2022-08-17T20:48:30.506Z,17.52
2022-08-17T20:50:52.489Z,17.53
2022-08-17T20:53:54.072Z,17.61
2022-08-17T20:56:46.519Z,17.48
2022-08-17T20:59:30.286Z,17.46
2022-08-17T21:02:18.520Z,17.52
2022-08-17T21:04:52.628Z,17.52
2022-08-17T21:07:52.054Z,17.55
2022-08-17T21:10:21.449Z,17.59
2022-08-17T21:12:52.280Z,17.66
2022-08-17T21:15:43.749Z,17.54
2022-08-17T21:18:47.665Z,17.33
2022-08-17T21:21:39.620Z,17.26
2022-08-17T21:24:21.196Z,17.16
2022-08-17T21:27:20.045Z,17.13
2022-08-17T21:30:13.792Z,17.03
2022-08-17T21:32:43.067Z,17.04
2022-08-17T21:35:28.213Z,16.93
2022-08-17T21:38:04.292Z,16.95
2022-08-17T21:40:33.612Z,16.89
2022-08-17T21:43:23.458Z,16.85
2022-08-17T21:45:58.989Z,16.88
2022-08-17T21:48:27.371Z,16.96
2022-08-17T21:51:13.056Z,16.99
2022-08-17T21:53:46.954Z,16.99
2022-08-17T21:56:41.363Z,17.03
2022-08-17T21:59:19.252Z,16.97
2022-08-17T22:02:19.657Z,16.96
2022-08-17T22:05:00.445Z,16.95
2022-08-17T22:07:59.923Z,16.97
2022-08-17T22:10:34.041Z,16.93
2022-08-17T22:13:16.565Z,16.97
2022-08-17T22:15:47.488Z,16.96
2022-08-17T22:18:24.912Z,16.97
2022-08-17T22:20:54.999Z,17.00
2022-08-17T22:23:52.787Z,16.92
2022-08-17T22:26:22.404Z,16.88
2022-08-17T22:28:58.060Z,16.90
2022-08-17T22:31:27.778Z,16.82
2022-08-17T22:34:03.360Z,16.81
2022-08-17T22:36:35.760Z,16.76
2022-08-17T22:39:02.135Z,16.70
2022-08-17T22:41:34.277Z,16.71
2022-08-17T22:44:27.277Z,16.64
2022-08-17T22:47:01.701Z,16.70
2022-08-17T22:49:54.092Z,16.69
2022-08-17T22:52:20.995Z,16.67
2022-08-17T22:55:09.587Z,16.67
2022-08-17T22:57:56.233Z,16.74
2022-08-17T23:00:30.643Z,16.59
2022-08-17T23:03:06.265Z,16.39
2022-08-17T23:05:34.012Z,16.39
2022-08-17T23:08:00.433Z,16.46
2022-08-17T23:10:27.565Z,16.29
2022-08-17T23:12:57.355Z,16.26
2022-08-17T23:15:26.150Z,16.22
2022-08-17T23:17:52.752Z,16.09
2022-08-17T23:20:19.540Z,15.95
2022-08-17T23:22:52.261Z,16.11
2022-08-17T23:25:27.834Z,16.12
2022-08-17T23:27:54.837Z,16.05
2022-08-17T23:30:27.129Z,16.03
2022-08-17T23:32:55.761Z,16.05
2022-08-17T23:35:39.027Z,16.12
2022-08-17T23:38:08.674Z,16.00
2022-08-17T23:40:35.169Z,16.10
2022-08-17T23:43:04.478Z,16.13
2022-08-17T23:45:32.457Z,16.13
2022-08-17T23:47:58.792Z,16.23
2022-08-17T23:50:25.263Z,16.25
2022-08-17T23:52:56.537Z,16.09
2022-08-17T23:55:22.842Z,16.06
2022-08-17T23:57:49.988Z,16.03
